Time;durP1;ratioP1;P1;durP2;ratioP2;P2;SDS_P1;SDS_P2;PMS_P1;PMS_P2;Temp;Humidity;BMP_temperature;BMP_pressure;BME280_temperature;BME280_humidity;BME280_pressure;Samples;Min_cycle;Max_cycle;Signal;HPM_P1;HPM_P2
2022/01/15 00:02:24;;;;;;;0.63;0.47;;;21.60;53.50;;;;;;5097972;28;20036;-72
2022/01/15 00:04:50;;;;;;;5.28;0.80;;;21.70;53.30;;;;;;5098261;28;20096;-72
2022/01/15 00:07:16;;;;;;;1.95;1.13;;;21.70;50.20;;;;;;5098528;28;20135;-72
2022/01/15 00:09:44;;;;;;;2.97;0.95;;;21.60;51.60;;;;;;5098483;28;20037;-72
2022/01/15 00:12:10;;;;;;;1.38;0.50;;;21.60;49.70;;;;;;5098363;28;20048;-73
2022/01/15 00:14:41;;;;;;;1.98;0.82;;;21.60;53.60;;;;;;5098041;28;20087;-72
2022/01/15 00:17:14;;;;;;;3.38;0.68;;;21.50;52.60;;;;;;5098236;28;20048;-72
2022/01/15 00:19:43;;;;;;;0.75;0.75;;;21.50;53.10;;;;;;5098170;28;20036;-72
2022/01/15 00:22:17;;;;;;;0.80;0.70;;;21.40;51.60;;;;;;5098292;28;20036;-72
2022/01/15 00:24:45;;;;;;;1.08;0.75;;;21.50;52.90;;;;;;5097845;28;20040;-72
2022/01/15 00:27:12;;;;;;;4.85;0.98;;;21.30;54.00;;;;;;5097897;28;20586;-72
2022/01/15 00:29:38;;;;;;;3.15;0.73;;;21.40;52.60;;;;;;5097975;28;20041;-71
2022/01/15 00:32:06;;;;;;;1.02;0.50;;;21.40;53.60;;;;;;5097517;28;20123;-72
2022/01/15 00:34:33;;;;;;;1.75;0.80;;;21.40;54.30;;;;;;5097559;28;20040;-73
2022/01/15 00:37:00;;;;;;;2.75;0.73;;;21.40;52.80;;;;;;5097851;28;20095;-72
2022/01/15 00:39:27;;;;;;;4.13;1.17;;;21.50;51.40;;;;;;5097840;28;20032;-72
2022/01/15 00:41:53;;;;;;;1.83;0.88;;;21.50;54.00;;;;;;5097016;28;20043;-72
2022/01/15 00:44:20;;;;;;;0.90;0.47;;;21.50;52.40;;;;;;5097624;28;20052;-72
2022/01/15 00:46:46;;;;;;;1.63;0.77;;;21.50;52.20;;;;;;5097575;28;20036;-72
2022/01/15 00:49:12;;;;;;;2.20;0.60;;;21.50;51.50;;;;;;5097615;28;20040;-72
2022/01/15 00:51:39;;;;;;;3.97;0.80;;;21.50;52.30;;;;;;5097326;28;20047;-72
2022/01/15 00:54:06;;;;;;;1.05;0.82;;;21.50;51.50;;;;;;5097090;28;20066;-72
2022/01/15 00:56:32;;;;;;;0.85;0.55;;;21.30;51.60;;;;;;5097192;28;20048;-72
2022/01/15 00:58:58;;;;;;;2.97;0.65;;;21.40;52.60;;;;;;5097335;28;20100;-72
2022/01/15 01:01:24;;;;;;;0.93;0.55;;;21.50;53.70;;;;;;5097005;28;20040;-72
2022/01/15 01:03:51;;;;;;;1.13;0.90;;;21.50;52.90;;;;;;5097183;28;20041;-72
2022/01/15 01:06:17;;;;;;;1.30;0.60;;;21.50;51.10;;;;;;5097039;28;20044;-72
2022/01/15 01:08:43;;;;;;;0.80;0.60;;;21.40;52.30;;;;;;5097134;28;20055;-72
2022/01/15 01:11:16;;;;;;;2.45;1.00;;;21.40;52.40;;;;;;5097174;28;20047;-72
2022/01/15 01:24:29;;;;;;;2.00;1.27;;;21.40;52.10;;;;;;5096755;28;20044;-72
2022/01/15 01:27:06;;;;;;;5.40;0.98;;;21.40;52.00;;;;;;5097007;28;20051;-72
2022/01/15 01:34:56;;;;;;;1.45;0.80;;;21.30;51.90;;;;;;5096686;28;20044;-72
2022/01/15 01:37:35;;;;;;;1.10;0.70;;;21.20;50.20;;;;;;5096613;28;20033;-72
2022/01/15 01:40:17;;;;;;;1.23;0.85;;;21.30;51.10;;;;;;5096867;28;20040;-71
2022/01/15 01:42:54;;;;;;;1.25;1.10;;;21.20;52.80;;;;;;5078714;28;20048;-72
2022/01/15 01:45:20;;;;;;;0.98;0.70;;;21.30;52.40;;;;;;5096542;28;20044;-72
2022/01/15 01:47:46;;;;;;;3.72;1.10;;;21.20;51.90;;;;;;5096786;28;20048;-72
2022/01/15 01:50:16;;;;;;;3.88;0.98;;;21.30;50.90;;;;;;5096210;28;20044;-72
2022/01/15 01:52:46;;;;;;;2.53;0.90;;;21.30;53.70;;;;;;5096611;28;20070;-72
2022/01/15 01:55:13;;;;;;;0.73;0.38;;;21.20;52.90;;;;;;5096291;28;20043;-72
2022/01/15 01:57:40;;;;;;;2.88;0.68;;;21.30;51.90;;;;;;5096196;28;20033;-72
2022/01/15 02:00:09;;;;;;;0.75;0.68;;;21.30;52.90;;;;;;5096667;28;20041;-72
2022/01/15 02:02:44;;;;;;;3.35;1.13;;;21.30;51.60;;;;;;5096388;28;20037;-72
2022/01/15 02:05:11;;;;;;;2.05;0.90;;;21.20;51.20;;;;;;5096380;28;20037;-72
2022/01/15 02:07:38;;;;;;;2.42;1.00;;;21.20;53.40;;;;;;5096549;28;20190;-72
2022/01/15 02:10:09;;;;;;;4.30;1.00;;;21.40;51.40;;;;;;5096527;28;20037;-72
2022/01/15 02:12:36;;;;;;;1.52;0.50;;;21.50;51.90;;;;;;5096017;28;20086;-72
2022/01/15 02:15:12;;;;;;;1.40;0.85;;;21.50;51.10;;;;;;5096356;28;20044;-72
2022/01/15 02:17:39;;;;;;;1.55;0.95;;;21.40;52.10;;;;;;5096332;28;20040;-72
2022/01/15 02:25:47;;;;;;;3.75;0.90;;;21.20;51.20;;;;;;5096100;28;20045;-72
2022/01/15 02:28:15;;;;;;;3.50;0.52;;;21.20;51.70;;;;;;5096302;28;20039;-72
2022/01/15 02:30:41;;;;;;;3.78;0.90;;;21.10;52.00;;;;;;5096184;28;20108;-72
2022/01/15 02:33:08;;;;;;;3.95;1.13;;;21.10;53.60;;;;;;5095831;28;20068;-72
2022/01/15 02:35:36;;;;;;;4.50;1.10;;;21.20;52.70;;;;;;5096002;28;20040;-72
2022/01/15 02:38:07;;;;;;;2.50;1.10;;;21.30;50.50;;;;;;5096145;28;20063;-72
2022/01/15 02:40:37;;;;;;;2.65;1.00;;;21.20;52.20;;;;;;5095587;28;20036;-72
2022/01/15 02:43:14;;;;;;;3.38;1.02;;;21.20;50.20;;;;;;5095716;28;20037;-72
2022/01/15 02:45:44;;;;;;;2.55;1.02;;;21.20;51.70;;;;;;5095927;28;20041;-72
2022/01/15 02:48:15;;;;;;;3.53;1.02;;;21.10;50.90;;;;;;5078442;28;20059;-72
2022/01/15 02:50:42;;;;;;;1.67;0.70;;;21.00;52.50;;;;;;5095781;28;20059;-72
2022/01/15 02:53:11;;;;;;;4.72;1.27;;;21.10;52.50;;;;;;5095821;28;20453;-73
2022/01/15 02:55:49;;;;;;;3.47;1.13;;;21.10;49.80;;;;;;5099614;28;20048;-72
2022/01/15 02:58:18;;;;;;;2.83;0.93;;;21.00;51.70;;;;;;5099647;28;20040;-72
2022/01/15 03:00:46;;;;;;;2.17;0.93;;;21.00;54.10;;;;;;5099378;28;20040;-72
2022/01/15 03:03:13;;;;;;;2.40;0.85;;;21.00;52.60;;;;;;5099505;28;20100;-73
2022/01/15 03:05:40;;;;;;;2.00;0.90;;;20.90;53.70;;;;;;5099593;28;20079;-72
2022/01/15 03:08:07;;;;;;;2.47;0.90;;;21.00;51.30;;;;;;5099504;28;20068;-72
2022/01/15 03:10:33;;;;;;;3.78;1.02;;;21.00;53.40;;;;;;5099533;28;20079;-72
2022/01/15 03:13:01;;;;;;;3.25;1.17;;;21.10;53.60;;;;;;5099348;28;20036;-72
2022/01/15 03:15:28;;;;;;;2.65;1.30;;;21.10;53.50;;;;;;5099401;28;20136;-72
2022/01/15 03:17:54;;;;;;;3.00;1.00;;;21.00;49.20;;;;;;5099408;28;20047;-72
2022/01/15 03:20:21;;;;;;;5.95;1.10;;;21.00;52.00;;;;;;5081928;28;20059;-72
2022/01/15 03:22:48;;;;;;;1.08;0.80;;;21.00;50.30;;;;;;5098693;28;20036;-72
2022/01/15 03:25:15;;;;;;;1.48;1.23;;;20.90;53.10;;;;;;5088376;28;20037;-72
2022/01/15 03:27:42;;;;;;;1.25;0.93;;;20.90;53.10;;;;;;5099226;28;20040;-72
2022/01/15 03:30:10;;;;;;;1.63;0.93;;;21.00;50.50;;;;;;5099058;28;20040;-72
2022/01/15 03:32:42;;;;;;;3.33;0.90;;;21.10;53.50;;;;;;5098836;28;20057;-72
2022/01/15 03:35:12;;;;;;;1.95;1.30;;;21.00;51.00;;;;;;5098855;28;20048;-73
2022/01/15 03:37:38;;;;;;;1.77;1.05;;;21.00;50.20;;;;;;5098588;28;20028;-72
2022/01/15 03:40:06;;;;;;;1.38;0.90;;;21.10;51.20;;;;;;5098376;28;20056;-72
2022/01/15 03:42:32;;;;;;;3.25;1.27;;;21.10;51.40;;;;;;5098637;28;20047;-72
2022/01/15 03:44:59;;;;;;;3.97;1.70;;;21.00;49.10;;;;;;5097619;28;20051;-72
2022/01/15 03:47:25;;;;;;;3.17;1.08;;;21.10;49.10;;;;;;5098575;28;20043;-72
2022/01/15 03:49:51;;;;;;;2.65;1.08;;;21.00;49.40;;;;;;5098647;28;20044;-71
2022/01/15 03:52:17;;;;;;;2.08;1.08;;;20.90;50.30;;;;;;5097749;28;20070;-72
2022/01/15 03:54:45;;;;;;;2.95;1.02;;;21.00;53.30;;;;;;5098533;28;20070;-72
2022/01/15 03:57:11;;;;;;;2.45;1.60;;;21.00;51.00;;;;;;5098391;28;20059;-72
2022/01/15 03:59:37;;;;;;;2.67;0.65;;;20.90;48.70;;;;;;5098626;28;20048;-72
2022/01/15 04:02:04;;;;;;;3.97;1.42;;;20.90;52.90;;;;;;5098370;28;20036;-72
2022/01/15 04:04:31;;;;;;;4.13;1.20;;;21.00;51.90;;;;;;5097978;28;20048;-72
2022/01/15 04:06:57;;;;;;;4.45;1.50;;;20.90;52.60;;;;;;5097807;28;20038;-72
2022/01/15 04:09:23;;;;;;;3.03;1.40;;;20.90;52.60;;;;;;5097937;28;20044;-72
2022/01/15 04:11:49;;;;;;;1.30;1.05;;;20.90;48.80;;;;;;5098151;28;20038;-72
2022/01/15 04:14:16;;;;;;;2.17;1.13;;;20.90;52.00;;;;;;5098197;28;20044;-72
2022/01/15 04:16:42;;;;;;;7.72;1.00;;;20.90;52.20;;;;;;5098258;28;20044;-72
2022/01/15 04:19:09;;;;;;;1.45;0.75;;;21.00;53.10;;;;;;5098123;28;20108;-72
2022/01/15 04:21:36;;;;;;;4.25;1.63;;;21.00;49.90;;;;;;5098025;28;20032;-72
2022/01/15 04:24:04;;;;;;;1.98;1.30;;;21.10;51.70;;;;;;5097913;28;20040;-72
2022/01/15 04:26:30;;;;;;;1.88;1.40;;;21.00;48.30;;;;;;5098093;28;20040;-72
2022/01/15 04:29:03;;;;;;;1.08;0.68;;;20.90;44.30;;;;;;5097835;28;20058;-72
2022/01/15 04:31:46;;;;;;;2.55;1.27;;;20.70;48.90;;;;;;5097608;28;20064;-72
2022/01/15 04:34:16;;;;;;;4.90;1.48;;;20.50;41.90;;;;;;5097893;28;20060;-72
2022/01/15 04:36:43;;;;;;;4.38;1.45;;;20.30;47.60;;;;;;5097897;28;20071;-72
2022/01/15 04:39:10;;;;;;;2.13;1.27;;;20.40;47.20;;;;;;5097721;28;20127;-71
2022/01/15 04:41:37;;;;;;;3.63;1.27;;;20.10;46.00;;;;;;5097867;28;20046;-72
2022/01/15 04:44:07;;;;;;;4.47;1.40;;;20.20;53.00;;;;;;5097283;28;20048;-72
2022/01/15 04:46:34;;;;;;;2.83;1.08;;;20.20;54.90;;;;;;5097646;28;20048;-75
2022/01/15 04:49:00;;;;;;;15.32;1.90;;;20.70;58.40;;;;;;5097564;28;20044;-73
2022/01/15 04:51:27;;;;;;;3.15;1.20;;;21.10;59.30;;;;;;5097453;28;20036;-73
2022/01/15 04:53:54;;;;;;;1.42;1.00;;;21.50;61.10;;;;;;5097248;28;20155;-75
2022/01/15 04:56:20;;;;;;;1.63;1.02;;;21.80;54.20;;;;;;5096933;28;20041;-75
2022/01/15 04:58:46;;;;;;;2.97;1.60;;;21.70;50.20;;;;;;5097463;28;20036;-74
2022/01/15 05:01:13;;;;;;;3.90;1.70;;;21.70;48.60;;;;;;5096891;28;20041;-72
2022/01/15 05:03:39;;;;;;;0.98;0.85;;;21.60;44.70;;;;;;5096619;28;20060;-72
2022/01/15 05:06:06;;;;;;;2.67;1.67;;;21.50;41.90;;;;;;5096718;28;20044;-71
2022/01/15 05:08:32;;;;;;;2.55;1.35;;;21.30;44.80;;;;;;5096502;28;20092;-70
2022/01/15 05:11:09;;;;;;;2.58;1.70;;;21.30;46.70;;;;;;5096541;28;20044;-71
2022/01/15 05:13:36;;;;;;;2.53;1.17;;;21.30;47.80;;;;;;5096174;28;20032;-71
2022/01/15 05:16:03;;;;;;;3.97;1.50;;;21.40;47.50;;;;;;5096386;28;20044;-73
2022/01/15 05:18:29;;;;;;;3.00;1.80;;;21.40;48.90;;;;;;5096339;28;20044;-72
2022/01/15 05:20:57;;;;;;;2.22;1.30;;;21.30;47.80;;;;;;5096217;28;20041;-72
2022/01/15 05:23:23;;;;;;;4.10;1.83;;;21.50;46.40;;;;;;5096135;28;20036;-72
2022/01/15 05:25:49;;;;;;;5.50;1.77;;;21.30;50.10;;;;;;5095966;28;20044;-72
2022/01/15 05:28:15;;;;;;;3.10;1.00;;;21.30;48.80;;;;;;5096253;28;20041;-75
2022/01/15 05:30:41;;;;;;;3.35;1.38;;;21.60;50.70;;;;;;5096408;28;20036;-76
2022/01/15 05:33:08;;;;;;;4.07;1.90;;;21.60;49.50;;;;;;5095924;28;20056;-76
2022/01/15 05:35:34;;;;;;;3.95;1.23;;;21.70;48.00;;;;;;5095731;28;20051;-77
2022/01/15 05:38:00;;;;;;;4.25;1.60;;;21.70;46.90;;;;;;5096244;28;20037;-77
2022/01/15 05:40:27;;;;;;;5.90;1.10;;;21.90;47.40;;;;;;5078677;28;20058;-76
2022/01/15 05:42:54;;;;;;;1.92;1.30;;;21.80;47.00;;;;;;5096012;28;20465;-76
2022/01/15 05:45:22;;;;;;;4.57;1.17;;;21.80;46.10;;;;;;5096374;28;20039;-76
2022/01/15 05:47:48;;;;;;;2.40;1.10;;;21.80;44.50;;;;;;5096077;28;20036;-75
2022/01/15 05:50:14;;;;;;;13.80;7.40;;;21.70;44.70;;;;;;5095863;28;20048;-76
2022/01/15 05:52:41;;;;;;;5.32;2.53;;;21.90;42.40;;;;;;5095809;28;20092;-71
2022/01/15 05:55:08;;;;;;;2.60;1.65;;;21.80;37.50;;;;;;5096032;28;20040;-71
2022/01/15 05:57:34;;;;;;;5.53;2.53;;;21.80;36.20;;;;;;5078273;28;20044;-71
2022/01/15 06:00:00;;;;;;;8.45;2.70;;;21.70;39.90;;;;;;5096047;28;20096;-70
2022/01/15 06:02:26;;;;;;;6.53;2.83;;;21.80;39.30;;;;;;5095909;28;20028;-70
2022/01/15 06:04:53;;;;;;;11.88;3.70;;;21.80;44.70;;;;;;5095753;28;20037;-72
2022/01/15 06:07:18;;;;;;;12.23;3.13;;;22.00;54.10;;;;;;5095959;28;20040;-72
2022/01/15 06:09:45;;;;;;;9.75;3.10;;;22.20;43.90;;;;;;5095595;28;20045;-71
2022/01/15 06:12:11;;;;;;;17.27;5.40;;;22.20;41.50;;;;;;5094793;28;20207;-71
2022/01/15 06:14:37;;;;;;;6.38;3.30;;;22.40;49.70;;;;;;5094832;28;20438;-70
2022/01/15 06:17:04;;;;;;;8.73;3.50;;;22.50;40.70;;;;;;5094892;28;20056;-72
2022/01/15 06:19:30;;;;;;;26.05;2.92;;;22.60;38.40;;;;;;5095009;28;20036;-72
2022/01/15 06:21:59;;;;;;;7.40;2.60;;;22.60;42.50;;;;;;5094898;28;20040;-71
2022/01/15 06:24:26;;;;;;;10.40;3.17;;;22.70;34.90;;;;;;5092083;28;20041;-74
2022/01/15 06:26:53;;;;;;;6.07;2.08;;;22.60;32.20;;;;;;5094721;28;20036;-72
2022/01/15 06:29:20;;;;;;;5.13;2.17;;;22.40;32.60;;;;;;5097213;28;20050;-71
2022/01/15 06:31:46;;;;;;;6.22;2.22;;;22.40;33.80;;;;;;5098761;28;20048;-72
2022/01/15 06:34:12;;;;;;;10.90;2.45;;;22.40;32.70;;;;;;5098723;28;20047;-70
2022/01/15 06:36:38;;;;;;;5.68;1.60;;;22.40;32.40;;;;;;5098600;28;20045;-73
2022/01/15 06:39:04;;;;;;;7.60;2.10;;;22.40;31.80;;;;;;5098344;28;20044;-73
2022/01/15 06:41:30;;;;;;;2.22;1.30;;;22.20;32.80;;;;;;5098124;28;20071;-73
2022/01/15 06:43:56;;;;;;;6.57;1.95;;;22.40;42.50;;;;;;5098838;28;20036;-73
2022/01/15 06:46:22;;;;;;;5.28;2.00;;;22.40;45.70;;;;;;5098819;28;20044;-73
2022/01/15 06:48:48;;;;;;;6.97;2.28;;;22.30;41.00;;;;;;5098279;28;20052;-72
2022/01/15 06:51:15;;;;;;;3.40;1.70;;;22.20;42.20;;;;;;5098428;28;20066;-72
2022/01/15 06:53:41;;;;;;;4.30;1.77;;;22.00;53.40;;;;;;5097458;28;20052;-75
2022/01/15 06:56:07;;;;;;;5.25;2.05;;;22.00;52.60;;;;;;5098257;28;20134;-73
2022/01/15 06:58:33;;;;;;;7.13;2.10;;;22.00;45.60;;;;;;5098338;28;20040;-72
2022/01/15 07:00:59;;;;;;;4.28;1.88;;;22.10;49.00;;;;;;5098147;28;20064;-71
2022/01/15 07:03:26;;;;;;;3.72;1.45;;;21.90;41.70;;;;;;5098172;28;20040;-71
2022/01/15 07:05:52;;;;;;;6.35;1.85;;;21.80;47.70;;;;;;5098257;28;20040;-71
2022/01/15 07:08:18;;;;;;;5.28;2.10;;;21.70;52.00;;;;;;5098314;28;20059;-71
2022/01/15 07:10:44;;;;;;;4.50;1.70;;;21.80;49.40;;;;;;5098129;28;20131;-71
2022/01/15 07:13:11;;;;;;;3.38;1.70;;;21.70;51.60;;;;;;5097887;28;20626;-71
2022/01/15 07:15:37;;;;;;;3.95;2.00;;;21.70;50.30;;;;;;5098024;28;20064;-72
2022/01/15 07:18:03;;;;;;;4.10;1.77;;;21.80;49.20;;;;;;5098035;28;20060;-71
2022/01/15 07:20:29;;;;;;;10.07;1.83;;;21.80;49.20;;;;;;5097991;28;20036;-70
2022/01/15 07:22:57;;;;;;;2.92;1.50;;;21.80;54.10;;;;;;5097326;28;20039;-71
2022/01/15 07:25:23;;;;;;;5.82;2.33;;;21.70;50.80;;;;;;5098189;28;20036;-72
2022/01/15 07:27:49;;;;;;;10.38;2.28;;;21.80;50.20;;;;;;5098387;28;20040;-72
2022/01/15 07:30:16;;;;;;;5.47;2.28;;;21.80;50.20;;;;;;5098620;28;20059;-72
2022/01/15 07:32:43;;;;;;;6.80;1.70;;;21.90;51.40;;;;;;5098238;28;20044;-72
2022/01/15 07:35:11;;;;;;;3.83;2.10;;;21.80;54.10;;;;;;5097367;28;20071;-72
2022/01/15 07:37:38;;;;;;;3.58;1.50;;;21.80;53.40;;;;;;5098130;28;20036;-73
2022/01/15 07:40:06;;;;;;;6.57;1.48;;;21.70;54.40;;;;;;5097084;28;20063;-73
2022/01/15 07:42:36;;;;;;;5.93;2.10;;;21.60;53.10;;;;;;5098125;28;20037;-72
2022/01/15 07:45:11;;;;;;;5.85;1.60;;;21.70;49.40;;;;;;5097731;28;20033;-73
2022/01/15 07:47:38;;;;;;;5.22;2.30;;;21.60;54.80;;;;;;5097847;28;20056;-74
2022/01/15 07:50:07;;;;;;;4.00;1.60;;;21.60;50.20;;;;;;5097686;28;20041;-73
2022/01/15 07:52:33;;;;;;;4.65;1.95;;;21.30;49.00;;;;;;5097986;28;20107;-71
2022/01/15 07:55:00;;;;;;;4.97;1.05;;;21.20;49.10;;;;;;5097563;28;20041;-73
2022/01/15 07:57:27;;;;;;;9.65;2.35;;;21.00;50.80;;;;;;5097815;28;20108;-72
2022/01/15 07:59:53;;;;;;;6.97;2.45;;;21.00;52.80;;;;;;5097707;28;20063;-72
2022/01/15 08:02:20;;;;;;;3.67;1.92;;;20.90;56.00;;;;;;5097816;28;20057;-72
2022/01/15 08:04:46;;;;;;;6.88;2.50;;;21.00;55.70;;;;;;5097743;28;20036;-72
2022/01/15 08:07:12;;;;;;;7.22;2.22;;;21.10;52.30;;;;;;5097879;28;20032;-71
2022/01/15 08:09:39;;;;;;;2.65;1.05;;;21.30;52.90;;;;;;5097724;28;20066;-72
2022/01/15 08:12:05;;;;;;;5.13;1.48;;;21.20;53.00;;;;;;5097730;28;20049;-71
2022/01/15 08:14:32;;;;;;;1.13;0.68;;;21.30;54.40;;;;;;5097548;28;20040;-71
2022/01/15 08:16:58;;;;;;;3.42;1.73;;;21.50;58.20;;;;;;5096566;28;20092;-72
2022/01/15 08:19:24;;;;;;;2.85;1.45;;;21.60;55.50;;;;;;5097509;28;20040;-70
2022/01/15 08:21:50;;;;;;;3.10;1.55;;;21.60;57.90;;;;;;5097696;28;20091;-72
2022/01/15 08:24:17;;;;;;;4.03;0.95;;;21.60;55.80;;;;;;5078958;28;20036;-70
2022/01/15 08:26:43;;;;;;;7.38;1.70;;;21.70;55.30;;;;;;5097584;28;20044;-71
2022/01/15 08:29:09;;;;;;;7.38;1.45;;;21.80;57.20;;;;;;5096692;28;20096;-72
2022/01/15 08:31:35;;;;;;;7.40;2.25;;;21.70;56.10;;;;;;5095761;28;20120;-72
2022/01/15 08:34:02;;;;;;;5.05;2.25;;;21.80;53.60;;;;;;5096005;28;20044;-72
2022/01/15 08:36:28;;;;;;;3.08;1.70;;;21.70;55.80;;;;;;5097079;28;20041;-72
2022/01/15 08:38:54;;;;;;;5.40;1.90;;;21.70;55.40;;;;;;5079331;28;20123;-71
2022/01/15 08:41:20;;;;;;;8.75;2.17;;;21.80;57.80;;;;;;5096742;28;20041;-71
2022/01/15 08:43:46;;;;;;;4.03;1.83;;;21.80;55.80;;;;;;5095771;28;20040;-71
2022/01/15 08:46:13;;;;;;;5.70;1.70;;;22.00;58.20;;;;;;5095980;28;20040;-71
2022/01/15 08:48:39;;;;;;;5.80;1.58;;;22.00;57.90;;;;;;5079546;28;20101;-71
2022/01/15 08:51:05;;;;;;;8.20;2.53;;;22.10;59.20;;;;;;5096295;28;20045;-72
2022/01/15 08:53:32;;;;;;;4.80;1.75;;;22.10;54.70;;;;;;5095872;28;20892;-71
2022/01/15 08:55:58;;;;;;;4.65;2.45;;;22.10;57.70;;;;;;5096976;28;20036;-71
2022/01/15 08:58:25;;;;;;;5.53;2.15;;;22.00;55.40;;;;;;5096693;28;20044;-71
2022/01/15 09:00:54;;;;;;;3.75;2.05;;;21.90;56.50;;;;;;5095003;28;20045;-69
2022/01/15 09:03:24;;;;;;;7.18;2.15;;;22.00;52.90;;;;;;5096145;28;20039;-71
2022/01/15 09:05:50;;;;;;;5.93;1.83;;;21.60;49.80;;;;;;5096195;28;20041;-70
2022/01/15 09:08:19;;;;;;;1.92;1.25;;;21.40;50.10;;;;;;5096195;28;20071;-70
2022/01/15 09:10:45;;;;;;;4.30;1.52;;;21.30;53.60;;;;;;5075745;28;20060;-71
2022/01/15 09:13:12;;;;;;;1.63;0.98;;;21.40;52.40;;;;;;5095832;28;20047;-71
2022/01/15 09:15:38;;;;;;;1.00;0.73;;;21.30;50.80;;;;;;5095783;28;20044;-73
2022/01/15 09:18:05;;;;;;;1.27;0.73;;;21.40;56.70;;;;;;5096128;28;20040;-73
2022/01/15 09:20:31;;;;;;;4.03;1.40;;;21.60;54.30;;;;;;5096106;28;20066;-72
2022/01/15 09:22:57;;;;;;;5.15;1.85;;;21.70;53.10;;;;;;5095825;28;20043;-72
2022/01/15 09:25:25;;;;;;;1.02;0.63;;;21.60;51.20;;;;;;5095569;28;20052;-71
2022/01/15 09:30:35;;;;;;;4.15;1.60;;;21.80;48.00;;;;;;5094184;28;20036;-71
2022/01/15 09:33:03;;;;;;;4.75;2.05;;;21.90;47.10;;;;;;5095622;28;20055;-71
2022/01/15 09:35:30;;;;;;;1.77;1.65;;;22.00;47.50;;;;;;5095636;28;20099;-71
2022/01/15 09:37:58;;;;;;;35.25;20.70;;;22.00;46.40;;;;;;5095949;28;20112;-68
2022/01/15 09:40:26;;;;;;;8.70;3.92;;;22.10;48.90;;;;;;5095592;28;20070;-67
2022/01/15 09:42:54;;;;;;;5.35;2.30;;;22.00;37.00;;;;;;5095607;28;20040;-68
2022/01/15 09:45:23;;;;;;;8.57;2.58;;;22.00;33.00;;;;;;5095865;28;20067;-67
2022/01/15 09:48:04;;;;;;;4.82;2.15;;;22.10;31.70;;;;;;5096105;28;20036;-68
2022/01/15 09:50:35;;;;;;;7.75;2.42;;;21.90;38.40;;;;;;5096150;28;20040;-68
2022/01/15 09:53:02;;;;;;;3.25;1.55;;;22.00;43.10;;;;;;5095853;28;20045;-68
2022/01/15 09:55:28;;;;;;;3.40;1.92;;;22.10;41.70;;;;;;5095313;28;20036;-69
2022/01/15 09:57:55;;;;;;;6.20;2.00;;;22.00;43.60;;;;;;5094640;28;20035;-69
2022/01/15 10:00:23;;;;;;;5.57;2.78;;;22.00;42.90;;;;;;5094598;28;20070;-70
2022/01/15 10:02:50;;;;;;;6.00;2.80;;;21.90;37.90;;;;;;5095221;28;20123;-68
2022/01/15 10:05:18;;;;;;;7.35;2.38;;;22.10;34.90;;;;;;5095707;28;20041;-69
2022/01/15 10:08:03;;;;;;;4.28;1.85;;;22.30;34.80;;;;;;5095690;28;20071;-68
2022/01/15 10:10:31;;;;;;;2.67;1.40;;;22.30;33.20;;;;;;5096066;28;20036;-68
2022/01/15 10:13:17;;;;;;;2.63;1.60;;;22.40;32.50;;;;;;5095691;28;20070;-69
2022/01/15 10:15:46;;;;;;;7.63;1.83;;;22.40;39.80;;;;;;5094830;28;20050;-69
2022/01/15 10:18:20;;;;;;;3.08;1.58;;;22.60;35.50;;;;;;5094735;28;20040;-69
2022/01/15 10:20:46;;;;;;;5.10;1.88;;;22.50;32.10;;;;;;5095550;28;20107;-69
2022/01/15 10:23:18;;;;;;;5.72;1.67;;;22.50;32.60;;;;;;5095609;28;20045;-68
2022/01/15 10:25:45;;;;;;;2.90;1.58;;;22.70;30.10;;;;;;5095770;28;20040;-68
2022/01/15 10:28:11;;;;;;;3.65;2.10;;;22.70;30.10;;;;;;5095770;28;20090;-68
2022/01/15 10:30:38;;;;;;;4.35;1.55;;;22.80;28.00;;;;;;5095650;28;20067;-69
2022/01/15 10:33:07;;;;;;;3.55;1.63;;;22.70;30.40;;;;;;5095491;28;20056;-69
2022/01/15 10:35:34;;;;;;;3.85;1.65;;;22.80;30.30;;;;;;5095487;28;20051;-68
2022/01/15 10:38:03;;;;;;;7.20;2.85;;;23.00;30.30;;;;;;5095454;28;20069;-67
2022/01/15 10:40:39;;;;;;;7.82;2.72;;;23.10;31.90;;;;;;5095514;28;20150;-68
2022/01/15 10:43:05;;;;;;;4.57;2.40;;;22.80;34.40;;;;;;5095451;28;20096;-68
2022/01/15 10:45:34;;;;;;;4.70;1.98;;;22.80;38.10;;;;;;5095168;28;20049;-68
2022/01/15 10:48:04;;;;;;;2.78;1.70;;;22.70;42.50;;;;;;5095445;28;20075;-69
2022/01/15 10:50:33;;;;;;;2.25;1.48;;;22.60;38.90;;;;;;5094612;28;20033;-68
2022/01/15 10:53:11;;;;;;;4.32;2.47;;;22.60;38.80;;;;;;5094785;28;20047;-68
2022/01/15 10:55:41;;;;;;;6.63;3.15;;;22.40;37.30;;;;;;5095216;28;20070;-68
2022/01/15 10:58:11;;;;;;;4.35;2.15;;;22.30;40.20;;;;;;5095279;28;20040;-68
2022/01/15 11:00:41;;;;;;;18.13;4.50;;;22.30;41.70;;;;;;5095344;28;20038;-68
2022/01/15 11:03:12;;;;;;;8.40;3.05;;;22.70;43.10;;;;;;5095245;28;20044;-69
2022/01/15 11:05:39;;;;;;;7.82;3.67;;;23.10;35.50;;;;;;5095055;28;20063;-69
2022/01/15 11:08:15;;;;;;;7.40;3.42;;;23.20;36.10;;;;;;5095088;28;20045;-71
2022/01/15 11:11:03;;;;;;;6.53;3.42;;;23.30;36.10;;;;;;5095409;28;20047;-71
2022/01/15 11:13:32;;;;;;;4.60;1.98;;;23.30;30.50;;;;;;5095132;28;20062;-71
2022/01/15 11:16:23;;;;;;;6.35;2.35;;;23.40;34.80;;;;;;5101214;28;20069;-70
2022/01/15 11:18:54;;;;;;;8.80;2.75;;;23.50;32.60;;;;;;5098130;28;20040;-70
2022/01/15 11:21:22;;;;;;;8.20;2.88;;;23.40;34.00;;;;;;5098642;28;20033;-70
2022/01/15 11:23:50;;;;;;;4.00;2.50;;;23.50;38.20;;;;;;5078073;28;20096;-69
2022/01/15 11:26:26;;;;;;;6.35;1.77;;;23.50;38.30;;;;;;5068951;28;20043;-69
2022/01/15 11:28:55;;;;;;;8.38;1.88;;;23.40;36.60;;;;;;5078207;28;20048;-70
2022/01/15 11:31:24;;;;;;;3.90;1.60;;;23.40;41.80;;;;;;5096467;28;20052;-70
2022/01/15 11:33:53;;;;;;;6.65;2.45;;;23.20;42.00;;;;;;5097651;28;20044;-70
2022/01/15 11:36:33;;;;;;;6.72;1.55;;;23.10;36.40;;;;;;5097504;28;20058;-70
2022/01/15 11:39:03;;;;;;;2.38;1.17;;;23.00;40.60;;;;;;5098325;28;20037;-70
2022/01/15 11:41:29;;;;;;;3.85;1.73;;;22.90;41.70;;;;;;5098366;28;20035;-70
2022/01/15 11:43:56;;;;;;;4.13;1.88;;;22.90;41.90;;;;;;5097458;28;20033;-70
2022/01/15 11:46:33;;;;;;;5.30;2.25;;;22.80;39.60;;;;;;5097947;28;20040;-70
2022/01/15 11:49:27;;;;;;;4.63;1.98;;;22.70;38.70;;;;;;5098213;28;20048;-70
2022/01/15 11:51:57;;;;;;;2.95;2.00;;;22.50;41.60;;;;;;5097952;28;20058;-71
2022/01/15 11:54:25;;;;;;;5.38;2.17;;;22.60;44.30;;;;;;5097814;28;20045;-70
2022/01/15 11:56:51;;;;;;;3.47;1.98;;;22.50;40.80;;;;;;5097699;28;20055;-70
2022/01/15 11:59:26;;;;;;;5.45;1.13;;;22.40;41.20;;;;;;5098089;28;20072;-70
2022/01/15 12:01:54;;;;;;;6.65;2.05;;;22.50;45.60;;;;;;5097761;28;20036;-70
2022/01/15 12:04:32;;;;;;;5.13;2.15;;;22.50;45.20;;;;;;5097025;28;20044;-71
2022/01/15 12:07:10;;;;;;;3.25;1.55;;;22.70;42.20;;;;;;5097514;28;20036;-70
2022/01/15 12:09:38;;;;;;;5.32;1.77;;;22.70;47.20;;;;;;5097786;28;20035;-70
2022/01/15 12:15:00;;;;;;;2.80;1.33;;;22.60;41.80;;;;;;5097573;28;20056;-69
2022/01/15 12:17:31;;;;;;;4.68;2.63;;;22.50;44.70;;;;;;5097845;28;20051;-68
2022/01/15 12:20:17;;;;;;;3.53;1.77;;;22.60;43.00;;;;;;5063915;28;20037;-69
2022/01/15 12:22:43;;;;;;;4.07;2.00;;;22.60;43.30;;;;;;5097511;28;20066;-70
2022/01/15 12:25:11;;;;;;;5.22;2.05;;;22.70;41.20;;;;;;5097684;28;20036;-70
2022/01/15 12:27:40;;;;;;;4.53;1.58;;;22.70;45.60;;;;;;5096981;28;20071;-71
2022/01/15 12:30:27;;;;;;;6.47;2.65;;;22.70;48.60;;;;;;5097248;28;20045;-73
2022/01/15 12:32:56;;;;;;;5.97;1.92;;;22.70;47.70;;;;;;5097179;28;20055;-71
2022/01/15 12:35:25;;;;;;;2.97;1.63;;;22.70;43.90;;;;;;5097395;28;20037;-71
2022/01/15 12:38:05;;;;;;;4.85;2.00;;;22.80;45.70;;;;;;5097335;28;20043;-71
2022/01/15 12:40:43;;;;;;;3.83;1.42;;;22.80;43.20;;;;;;5079590;28;20067;-72
2022/01/15 12:43:21;;;;;;;3.42;1.42;;;22.70;48.00;;;;;;5080004;28;20053;-71
2022/01/15 12:45:49;;;;;;;2.88;1.52;;;22.90;49.80;;;;;;5079744;28;20040;-71
2022/01/15 12:48:19;;;;;;;3.30;1.83;;;22.80;43.30;;;;;;5079596;28;20047;-72
2022/01/15 12:50:55;;;;;;;4.07;1.95;;;23.00;42.60;;;;;;5078835;28;20044;-71
2022/01/15 12:53:26;;;;;;;2.28;0.95;;;22.90;45.20;;;;;;5096999;28;20043;-71
2022/01/15 12:55:53;;;;;;;3.47;1.83;;;23.00;48.30;;;;;;5096399;28;20044;-71
2022/01/15 12:58:22;;;;;;;4.68;2.45;;;23.10;46.90;;;;;;5096993;28;20092;-72
2022/01/15 13:00:49;;;;;;;5.97;2.45;;;23.20;45.90;;;;;;5096374;28;20040;-71
2022/01/15 13:03:21;;;;;;;3.50;1.83;;;23.10;43.20;;;;;;5096686;28;20096;-72
2022/01/15 13:05:55;;;;;;;5.32;1.80;;;23.20;45.10;;;;;;5096559;28;20135;-72
2022/01/15 13:08:32;;;;;;;8.25;2.63;;;23.10;49.40;;;;;;5079155;28;20036;-72
2022/01/15 13:11:03;;;;;;;6.65;2.42;;;23.20;46.70;;;;;;5096382;28;20104;-72
2022/01/15 13:13:38;;;;;;;4.40;1.52;;;23.20;44.30;;;;;;5096752;28;20048;-72
2022/01/15 13:16:12;;;;;;;6.05;2.45;;;23.10;47.40;;;;;;5078890;28;20054;-72
2022/01/15 13:18:43;;;;;;;3.05;1.50;;;23.10;43.90;;;;;;5096420;28;20036;-72
2022/01/15 13:21:17;;;;;;;2.03;1.30;;;23.10;47.80;;;;;;5096210;28;20041;-72